Time;durP1;ratioP1;P1;durP2;ratioP2;P2;SDS_P1;SDS_P2;PMS_P1;PMS_P2;Temp;Humidity;BMP_temperature;BMP_pressure;BME280_temperature;BME280_humidity;BME280_pressure;Samples;Min_cycle;Max_cycle;Signal;HPM_P1;HPM_P2
2023/03/05 00:01:10;;;;;;;30.47;16.50;;;;;;;;;;6090745;23;20503;-76
2023/03/05 00:04:14;;;;;;;30.43;16.90;;;;;;;;;;6090724;23;20507;-77
2023/03/05 00:07:18;;;;;;;28.90;16.20;;;;;;;;;;6071301;23;20906;-77
2023/03/05 00:10:22;;;;;;;30.13;16.67;;;;;;;;;;6115944;23;20618;-77
2023/03/05 00:13:27;;;;;;;29.27;16.63;;;;;;;;;;6137026;23;20506;-76
2023/03/05 00:16:31;;;;;;;33.60;17.60;;;;;;;;;;6136940;23;20518;-78
2023/03/05 00:19:35;;;;;;;32.50;17.87;;;;;;;;;;6137357;23;21047;-76
2023/03/05 00:22:39;;;;;;;29.77;16.53;;;;;;;;;;6137742;23;20499;-76
2023/03/05 00:25:45;;;;;;;29.17;16.20;;;;;;;;;;6120356;23;20502;-78
2023/03/05 00:28:51;;;;;;;29.13;15.67;;;;;;;;;;6109920;23;21145;-77
2023/03/05 00:31:55;;;;;;;31.40;16.93;;;;;;;;;;6120101;23;20865;-76
2023/03/05 00:34:59;;;;;;;35.03;18.57;;;;;;;;;;6137006;23;20514;-77
2023/03/05 00:38:03;;;;;;;29.00;16.47;;;;;;;;;;6114196;23;20585;-77
2023/03/05 00:41:08;;;;;;;33.57;17.30;;;;;;;;;;6136756;23;20502;-77
2023/03/05 00:44:12;;;;;;;33.77;18.30;;;;;;;;;;6121877;23;20525;-77
2023/03/05 00:47:17;;;;;;;30.73;16.13;;;;;;;;;;6135445;23;20574;-77
2023/03/05 00:50:21;;;;;;;33.47;18.90;;;;;;;;;;6122482;23;20572;-77
2023/03/05 00:53:25;;;;;;;33.90;17.23;;;;;;;;;;6122078;23;20519;-77
2023/03/05 00:56:30;;;;;;;30.73;17.57;;;;;;;;;;6139453;23;20510;-78
2023/03/05 00:59:34;;;;;;;35.30;17.87;;;;;;;;;;6122362;23;20506;-78
2023/03/05 01:02:38;;;;;;;35.27;17.27;;;;;;;;;;6139019;23;21027;-78
2023/03/05 01:05:42;;;;;;;33.53;18.50;;;;;;;;;;6122328;23;20514;-77
2023/03/05 01:08:46;;;;;;;38.57;19.13;;;;;;;;;;6108486;23;21114;-81
2023/03/05 01:11:52;;;;;;;30.97;17.97;;;;;;;;;;6093007;23;20559;-81
2023/03/05 01:14:55;;;;;;;33.80;18.37;;;;;;;;;;6092319;23;20508;-78
2023/03/05 01:18:00;;;;;;;34.33;18.97;;;;;;;;;;6069943;23;20901;-81
2023/03/05 01:21:05;;;;;;;31.37;18.53;;;;;;;;;;6075841;23;20507;-77
2023/03/05 01:24:09;;;;;;;34.43;19.03;;;;;;;;;;6076059;23;20841;-77
2023/03/05 01:27:13;;;;;;;36.20;18.83;;;;;;;;;;6072788;23;20574;-78
2023/03/05 01:30:18;;;;;;;37.00;18.63;;;;;;;;;;6075601;23;20508;-78
2023/03/05 01:33:23;;;;;;;33.90;18.10;;;;;;;;;;6092264;23;20511;-78
2023/03/05 01:36:27;;;;;;;36.40;18.20;;;;;;;;;;6075722;23;20609;-79
2023/03/05 01:39:31;;;;;;;36.50;20.13;;;;;;;;;;6108720;23;20503;-78
2023/03/05 01:42:35;;;;;;;34.13;18.83;;;;;;;;;;6066782;23;20554;-77
2023/03/05 01:46:17;;;;;;;35.10;18.57;;;;;;;;;;6100154;23;20563;-77
2023/03/05 01:49:26;;;;;;;33.77;18.40;;;;;;;;;;6093929;23;20499;-78
2023/03/05 01:52:34;;;;;;;34.57;19.23;;;;;;;;;;6101009;23;20602;-76
2023/03/05 01:55:38;;;;;;;34.40;18.37;;;;;;;;;;6084091;23;20558;-77
2023/03/05 01:58:42;;;;;;;38.53;19.10;;;;;;;;;;6066329;23;20582;-77
2023/03/05 02:01:50;;;;;;;38.57;19.57;;;;;;;;;;6094482;23;20507;-78
2023/03/05 02:05:00;;;;;;;36.00;18.87;;;;;;;;;;6102077;23;20562;-78
2023/03/05 02:08:07;;;;;;;39.30;20.13;;;;;;;;;;6102705;23;20582;-77
2023/03/05 02:11:11;;;;;;;38.43;19.30;;;;;;;;;;6092152;23;20558;-77
2023/03/05 02:14:15;;;;;;;38.30;19.40;;;;;;;;;;6092686;23;20503;-77
2023/03/05 02:17:20;;;;;;;37.57;19.57;;;;;;;;;;6072332;23;20586;-77
2023/03/05 02:20:26;;;;;;;34.80;18.10;;;;;;;;;;6091833;23;20507;-77
2023/03/05 02:23:35;;;;;;;40.93;19.97;;;;;;;;;;6092446;23;21037;-77
2023/03/05 02:26:41;;;;;;;35.87;19.37;;;;;;;;;;6091831;23;20503;-77
2023/03/05 02:29:46;;;;;;;39.80;19.10;;;;;;;;;;6093310;23;21052;-77
2023/03/05 02:32:51;;;;;;;38.47;19.63;;;;;;;;;;6077591;23;20558;-78
2023/03/05 02:35:56;;;;;;;37.77;18.77;;;;;;;;;;6111303;23;20807;-77
2023/03/05 02:39:02;;;;;;;40.10;18.53;;;;;;;;;;6093785;23;20838;-78
2023/03/05 02:42:06;;;;;;;37.23;19.10;;;;;;;;;;6093113;23;20508;-77
2023/03/05 02:45:11;;;;;;;36.23;18.67;;;;;;;;;;6075870;23;21058;-76
2023/03/05 02:48:15;;;;;;;40.93;19.23;;;;;;;;;;6085785;23;20586;-77
2023/03/05 02:51:20;;;;;;;39.07;19.67;;;;;;;;;;6110001;23;20559;-78
2023/03/05 02:54:25;;;;;;;38.57;19.40;;;;;;;;;;6077269;23;20504;-78
2023/03/05 02:57:29;;;;;;;34.07;18.53;;;;;;;;;;6073418;23;20579;-78
2023/03/05 03:00:33;;;;;;;41.63;18.83;;;;;;;;;;6110646;23;20507;-77
2023/03/05 03:03:37;;;;;;;39.43;19.87;;;;;;;;;;6093743;23;20837;-77
2023/03/05 03:06:42;;;;;;;36.43;19.03;;;;;;;;;;6092792;23;20507;-77
2023/03/05 03:09:45;;;;;;;37.37;19.17;;;;;;;;;;6089865;23;21140;-78
2023/03/05 03:12:50;;;;;;;37.37;18.33;;;;;;;;;;6122659;23;20561;-78
2023/03/05 03:16:02;;;;;;;32.83;18.33;;;;;;;;;;6123753;23;20804;-77
2023/03/05 03:19:06;;;;;;;32.23;17.70;;;;;;;;;;6122576;23;20507;-78
2023/03/05 03:22:13;;;;;;;36.87;19.07;;;;;;;;;;6122224;23;20503;-77
2023/03/05 03:25:20;;;;;;;35.40;18.50;;;;;;;;;;6138801;23;20829;-77
2023/03/05 03:28:24;;;;;;;36.20;18.37;;;;;;;;;;6128712;23;20898;-78
2023/03/05 03:31:28;;;;;;;33.03;17.53;;;;;;;;;;6138214;23;20554;-77
2023/03/05 03:34:32;;;;;;;31.10;17.37;;;;;;;;;;6138687;23;20506;-77
2023/03/05 03:37:36;;;;;;;36.73;18.17;;;;;;;;;;6133633;23;20585;-77
2023/03/05 03:40:41;;;;;;;35.60;17.70;;;;;;;;;;6138739;23;20518;-78
2023/03/05 03:43:45;;;;;;;36.13;18.93;;;;;;;;;;6139137;23;20838;-78
2023/03/05 03:46:50;;;;;;;36.00;18.47;;;;;;;;;;6137183;23;20586;-77
2023/03/05 03:49:54;;;;;;;33.67;17.17;;;;;;;;;;6121985;23;20511;-78
2023/03/05 03:52:58;;;;;;;34.13;17.77;;;;;;;;;;6139998;23;20554;-77
2023/03/05 03:56:02;;;;;;;35.77;17.73;;;;;;;;;;6122044;23;20502;-78
2023/03/05 03:59:07;;;;;;;39.87;18.00;;;;;;;;;;6138280;23;20510;-78
2023/03/05 04:02:11;;;;;;;35.53;18.57;;;;;;;;;;6122289;23;20498;-77
2023/03/05 04:05:15;;;;;;;36.43;17.97;;;;;;;;;;6138893;23;20506;-78
2023/03/05 04:08:19;;;;;;;35.07;18.47;;;;;;;;;;6114631;23;20585;-77
2023/03/05 04:11:24;;;;;;;39.83;18.47;;;;;;;;;;6121761;23;20911;-77
2023/03/05 04:14:28;;;;;;;38.97;19.13;;;;;;;;;;6121905;23;20507;-77
2023/03/05 04:17:32;;;;;;;37.33;17.50;;;;;;;;;;6134326;23;20577;-78
2023/03/05 04:20:36;;;;;;;40.47;17.97;;;;;;;;;;6121832;23;20814;-77
2023/03/05 04:23:40;;;;;;;34.70;17.70;;;;;;;;;;6121568;23;21023;-77
2023/03/05 04:26:45;;;;;;;35.47;18.20;;;;;;;;;;6137636;23;20511;-77
2023/03/05 04:29:49;;;;;;;36.87;18.80;;;;;;;;;;6139150;23;20511;-77
2023/03/05 04:32:53;;;;;;;43.83;20.43;;;;;;;;;;6121747;23;20865;-77
2023/03/05 04:35:57;;;;;;;38.63;18.70;;;;;;;;;;6121791;23;20502;-78
2023/03/05 04:39:02;;;;;;;42.70;19.27;;;;;;;;;;6121895;23;20511;-78
2023/03/05 04:42:06;;;;;;;35.23;17.97;;;;;;;;;;6138597;23;20502;-77
2023/03/05 04:45:11;;;;;;;36.03;17.57;;;;;;;;;;6122060;23;20510;-77
2023/03/05 04:48:15;;;;;;;36.90;18.50;;;;;;;;;;6111719;23;20578;-78
2023/03/05 04:51:19;;;;;;;39.07;19.27;;;;;;;;;;6128800;23;20549;-77
2023/03/05 04:54:23;;;;;;;39.27;19.17;;;;;;;;;;6121623;23;20502;-77
2023/03/05 04:57:27;;;;;;;35.07;17.87;;;;;;;;;;6117539;23;20578;-78
2023/03/05 05:00:32;;;;;;;35.77;18.03;;;;;;;;;;6121630;23;20506;-77
2023/03/05 05:03:36;;;;;;;36.63;18.43;;;;;;;;;;6139568;23;20498;-77
2023/03/05 05:06:40;;;;;;;37.17;17.70;;;;;;;;;;6137387;23;20802;-77
2023/03/05 05:09:44;;;;;;;36.53;18.80;;;;;;;;;;6116018;23;20569;-78
2023/03/05 05:12:48;;;;;;;38.80;19.00;;;;;;;;;;6138125;23;20554;-78
2023/03/05 05:15:53;;;;;;;36.77;19.03;;;;;;;;;;6139767;23;20506;-77
2023/03/05 05:18:56;;;;;;;36.97;18.40;;;;;;;;;;6140040;23;20532;-78
2023/03/05 05:22:01;;;;;;;39.70;17.73;;;;;;;;;;6140154;23;20498;-78
2023/03/05 05:25:06;;;;;;;37.57;18.33;;;;;;;;;;6123762;23;20506;-77
2023/03/05 05:28:11;;;;;;;37.07;17.77;;;;;;;;;;6114146;23;20578;-77
2023/03/05 05:31:16;;;;;;;36.60;18.33;;;;;;;;;;6131094;23;20554;-77
2023/03/05 05:34:20;;;;;;;36.40;17.13;;;;;;;;;;6124052;23;20499;-78
2023/03/05 05:37:25;;;;;;;34.67;18.17;;;;;;;;;;6136954;23;20574;-78
2023/03/05 05:40:30;;;;;;;35.83;17.40;;;;;;;;;;6123605;23;20814;-79
2023/03/05 05:43:34;;;;;;;34.67;18.50;;;;;;;;;;6124096;23;20498;-77
2023/03/05 05:46:38;;;;;;;40.50;18.73;;;;;;;;;;6140632;23;20502;-77
2023/03/05 05:49:42;;;;;;;35.83;18.03;;;;;;;;;;6140229;23;20514;-77
2023/03/05 05:52:46;;;;;;;34.57;18.13;;;;;;;;;;6123381;23;20565;-78
2023/03/05 05:55:51;;;;;;;34.43;18.83;;;;;;;;;;6123877;23;21031;-78
2023/03/05 05:58:55;;;;;;;40.37;18.40;;;;;;;;;;6140141;23;20514;-77
2023/03/05 06:01:59;;;;;;;36.43;18.13;;;;;;;;;;6140569;23;21027;-77
2023/03/05 06:05:04;;;;;;;37.50;18.87;;;;;;;;;;6123740;23;20502;-78
2023/03/05 06:08:09;;;;;;;40.23;18.90;;;;;;;;;;6116197;23;20586;-78
2023/03/05 06:11:14;;;;;;;35.60;17.07;;;;;;;;;;6123009;23;20510;-77
2023/03/05 06:14:18;;;;;;;38.43;19.53;;;;;;;;;;6124437;23;20502;-77
2023/03/05 06:17:22;;;;;;;41.37;19.43;;;;;;;;;;6120078;23;20573;-78
2023/03/05 06:20:27;;;;;;;35.60;17.63;;;;;;;;;;6140156;23;20506;-78
2023/03/05 06:23:31;;;;;;;37.50;19.10;;;;;;;;;;6140168;23;20515;-80
2023/03/05 06:26:36;;;;;;;40.23;18.87;;;;;;;;;;6139316;23;20162;-78
2023/03/05 06:29:40;;;;;;;33.30;18.27;;;;;;;;;;6139629;23;20158;-79
2023/03/05 06:32:44;;;;;;;36.47;19.30;;;;;;;;;;6112771;23;20606;-79
2023/03/05 06:35:48;;;;;;;42.73;19.83;;;;;;;;;;6130042;23;20545;-78
2023/03/05 06:38:53;;;;;;;36.60;18.90;;;;;;;;;;6129528;23;20586;-79
2023/03/05 06:41:58;;;;;;;38.97;19.60;;;;;;;;;;6129135;23;20566;-78
2023/03/05 06:45:02;;;;;;;39.90;19.73;;;;;;;;;;6119825;23;21031;-77
2023/03/05 06:48:06;;;;;;;37.93;19.13;;;;;;;;;;6126602;23;20586;-77
2023/03/05 06:51:23;;;;;;;40.03;18.60;;;;;;;;;;6109278;23;21130;-77
2023/03/05 06:54:27;;;;;;;66.47;32.87;;;;;;;;;;6138113;23;20790;-76
2023/03/05 06:57:31;;;;;;;41.97;22.60;;;;;;;;;;6134051;23;20589;-77
2023/03/05 07:00:35;;;;;;;38.90;20.63;;;;;;;;;;6137990;23;20506;-77
2023/03/05 07:03:40;;;;;;;43.53;21.83;;;;;;;;;;6127311;23;20557;-76
2023/03/05 07:06:44;;;;;;;43.00;20.90;;;;;;;;;;6119497;23;20507;-77
2023/03/05 07:09:49;;;;;;;39.20;20.43;;;;;;;;;;6113543;23;20877;-76
2023/03/05 07:12:53;;;;;;;37.30;22.10;;;;;;;;;;6135823;23;20566;-76
2023/03/05 07:15:57;;;;;;;47.87;24.13;;;;;;;;;;6136170;23;21035;-76
2023/03/05 07:19:04;;;;;;;39.80;22.13;;;;;;;;;;6135919;23;20506;-76
2023/03/05 07:22:08;;;;;;;42.57;22.63;;;;;;;;;;6153441;23;21051;-77
2023/03/05 07:25:12;;;;;;;39.83;20.53;;;;;;;;;;6119360;23;20818;-76
2023/03/05 07:28:17;;;;;;;38.60;20.40;;;;;;;;;;6130300;23;20586;-76
2023/03/05 07:31:25;;;;;;;42.23;21.07;;;;;;;;;;6139982;23;20510;-77
2023/03/05 07:34:30;;;;;;;39.57;19.37;;;;;;;;;;6122622;23;20519;-77
2023/03/05 07:37:34;;;;;;;45.33;24.10;;;;;;;;;;6131355;23;20589;-77
2023/03/05 07:40:39;;;;;;;46.17;22.93;;;;;;;;;;6130928;23;21117;-78
2023/03/05 07:43:44;;;;;;;36.20;18.67;;;;;;;;;;6112508;23;20546;-77
2023/03/05 07:46:48;;;;;;;43.23;20.07;;;;;;;;;;6117521;23;20506;-76
2023/03/05 07:49:52;;;;;;;40.53;20.37;;;;;;;;;;6135280;23;20518;-76
2023/03/05 07:52:56;;;;;;;59.40;27.07;;;;;;;;;;6135528;23;20185;-76
2023/03/05 07:56:01;;;;;;;40.83;19.57;;;;;;;;;;6135572;23;20158;-76
2023/03/05 07:59:09;;;;;;;43.23;22.30;;;;;;;;;;6136466;23;20462;-75
2023/03/05 08:02:13;;;;;;;37.47;18.87;;;;;;;;;;6125576;23;20174;-76
2023/03/05 08:05:17;;;;;;;37.67;19.90;;;;;;;;;;6136327;23;20158;-76
2023/03/05 08:08:21;;;;;;;71.33;40.57;;;;;;;;;;6125647;23;20585;-77
2023/03/05 08:11:27;;;;;;;44.63;20.20;;;;;;;;;;6108770;23;20174;-76
2023/03/05 08:14:31;;;;;;;45.47;22.87;;;;;;;;;;6126422;23;20197;-76
2023/03/05 08:17:35;;;;;;;44.33;23.27;;;;;;;;;;6108830;23;20601;-77
2023/03/05 08:20:39;;;;;;;44.03;21.20;;;;;;;;;;6125963;23;20553;-77
2023/03/05 08:23:44;;;;;;;40.50;20.07;;;;;;;;;;6125479;23;20551;-77
2023/03/05 08:26:48;;;;;;;40.80;20.07;;;;;;;;;;6126613;23;20557;-77
2023/03/05 08:29:52;;;;;;;55.83;26.43;;;;;;;;;;6135059;23;20154;-76
2023/03/05 08:32:56;;;;;;;94.27;39.73;;;;;;;;;;6118491;23;20182;-76
2023/03/05 08:36:00;;;;;;;58.80;31.00;;;;;;;;;;6118419;23;20437;-76
2023/03/05 08:39:08;;;;;;;44.60;26.03;;;;;;;;;;6125918;23;20170;-76
2023/03/05 08:42:13;;;;;;;47.20;25.20;;;;;;;;;;6125333;23;20170;-75
2023/03/05 08:45:17;;;;;;;142.93;66.00;;;;;;;;;;6118290;23;20158;-77
2023/03/05 08:48:21;;;;;;;74.70;39.60;;;;;;;;;;6126026;23;20201;-76
2023/03/05 08:51:26;;;;;;;48.47;25.50;;;;;;;;;;6135760;23;20483;-76
2023/03/05 08:54:30;;;;;;;55.27;29.87;;;;;;;;;;6136080;23;20182;-76
2023/03/05 08:57:34;;;;;;;39.17;20.37;;;;;;;;;;6131303;23;20189;-75
2023/03/05 09:00:39;;;;;;;39.87;20.63;;;;;;;;;;6135249;23;20158;-75
2023/03/05 09:03:43;;;;;;;49.33;24.80;;;;;;;;;;6134813;23;20150;-75
2023/03/05 09:06:47;;;;;;;47.50;24.57;;;;;;;;;;6133787;23;20158;-75
2023/03/05 09:09:51;;;;;;;42.43;23.17;;;;;;;;;;6113291;23;20500;-75
2023/03/05 09:12:55;;;;;;;41.37;22.37;;;;;;;;;;6089481;23;20657;-76
2023/03/05 09:16:02;;;;;;;39.07;19.67;;;;;;;;;;6089077;23;20155;-76
2023/03/05 09:19:09;;;;;;;106.47;45.83;;;;;;;;;;6090205;23;20159;-76
2023/03/05 09:22:13;;;;;;;51.47;28.10;;;;;;;;;;6089074;23;20166;-76
2023/03/05 09:25:17;;;;;;;50.37;27.80;;;;;;;;;;6080093;23;20174;-76
2023/03/05 09:28:21;;;;;;;39.57;22.00;;;;;;;;;;6081793;23;20195;-77
2023/03/05 09:31:25;;;;;;;42.60;22.67;;;;;;;;;;6063664;23;20478;-76
2023/03/05 09:34:29;;;;;;;39.07;19.60;;;;;;;;;;6106082;23;20633;-77
2023/03/05 09:37:33;;;;;;;39.43;21.67;;;;;;;;;;6064284;23;20195;-77
2023/03/05 09:40:55;;;;;;;34.30;18.33;;;;;;;;;;6097515;23;20482;-76
2023/03/05 09:44:13;;;;;;;37.90;21.20;;;;;;;;;;6088974;23;20155;-77
2023/03/05 09:47:29;;;;;;;36.50;19.30;;;;;;;;;;6069356;23;20524;-76
2023/03/05 09:51:00;;;;;;;36.20;18.73;;;;;;;;;;6096709;23;20175;-76
2023/03/05 09:54:20;;;;;;;35.07;18.37;;;;;;;;;;6106249;23;20186;-76
2023/03/05 09:57:40;;;;;;;35.47;19.00;;;;;;;;;;6085149;23;20194;-75
2023/03/05 10:00:48;;;;;;;30.70;17.90;;;;;;;;;;6089060;23;20159;-76
2023/03/05 10:04:13;;;;;;;34.10;18.23;;;;;;;;;;6090803;23;20156;-75
2023/03/05 10:07:29;;;;;;;38.93;19.97;;;;;;;;;;6087614;23;20494;-76
2023/03/05 10:10:40;;;;;;;38.37;18.87;;;;;;;;;;6119937;23;20178;-76
2023/03/05 10:13:45;;;;;;;33.13;18.37;;;;;;;;;;6136733;23;20186;-75
2023/03/05 10:16:58;;;;;;;37.93;20.10;;;;;;;;;;6136023;23;20465;-75
2023/03/05 10:20:21;;;;;;;40.57;18.93;;;;;;;;;;6136553;23;20154;-76
2023/03/05 10:24:04;;;;;;;32.20;19.07;;;;;;;;;;6136746;23;20150;-77
2023/03/05 10:27:17;;;;;;;36.60;20.13;;;;;;;;;;6132073;23;20198;-78
2023/03/05 10:30:30;;;;;;;39.57;22.53;;;;;;;;;;6136929;23;20155;-77
2023/03/05 10:33:55;;;;;;;35.97;18.73;;;;;;;;;;6120410;23;20182;-76
2023/03/05 10:37:09;;;;;;;36.07;19.27;;;;;;;;;;6134740;23;20504;-76
2023/03/05 10:40:28;;;;;;;32.50;18.93;;;;;;;;;;6136715;23;20154;-76
2023/03/05 10:43:49;;;;;;;31.23;16.97;;;;;;;;;;6136834;23;20151;-76
2023/03/05 10:46:56;;;;;;;32.47;17.27;;;;;;;;;;6137130;23;20190;-76
2023/03/05 10:50:01;;;;;;;32.87;17.20;;;;;;;;;;6137514;23;20158;-76
2023/03/05 10:53:26;;;;;;;33.70;16.23;;;;;;;;;;6126662;23;20170;-76
2023/03/05 10:56:30;;;;;;;31.83;17.33;;;;;;;;;;6138521;23;20159;-77
2023/03/05 10:59:34;;;;;;;27.43;16.23;;;;;;;;;;6136776;23;20596;-76
2023/03/05 11:02:58;;;;;;;30.50;16.33;;;;;;;;;;6138382;23;20158;-76
2023/03/05 11:06:02;;;;;;;28.73;16.30;;;;;;;;;;6136013;23;20462;-78
2023/03/05 11:09:18;;;;;;;30.30;16.13;;;;;;;;;;6125904;23;20178;-76
2023/03/05 11:12:26;;;;;;;37.37;18.03;;;;;;;;;;6090075;23;20151;-76
2023/03/05 11:15:30;;;;;;;35.50;17.60;;;;;;;;;;6107648;23;20182;-76
2023/03/05 11:18:34;;;;;;;36.20;16.93;;;;;;;;;;6081893;23;20648;-76
2023/03/05 11:21:39;;;;;;;29.13;15.77;;;;;;;;;;6108016;23;20159;-76
2023/03/05 11:25:01;;;;;;;28.23;15.73;;;;;;;;;;6090362;23;20588;-77
2023/03/05 11:28:05;;;;;;;32.07;16.13;;;;;;;;;;6085070;23;20510;-76
2023/03/05 11:31:15;;;;;;;28.37;15.57;;;;;;;;;;6090577;23;20159;-76
2023/03/05 11:34:19;;;;;;;32.83;15.23;;;;;;;;;;6090403;23;20183;-76
2023/03/05 11:37:29;;;;;;;28.73;14.73;;;;;;;;;;6070573;23;20190;-76
2023/03/05 11:40:36;;;;;;;30.23;16.17;;;;;;;;;;6081472;23;20174;-76
2023/03/05 11:43:42;;;;;;;28.57;14.93;;;;;;;;;;6073703;23;20597;-76
2023/03/05 11:46:51;;;;;;;27.13;15.70;;;;;;;;;;6107809;23;20159;-76
2023/03/05 11:50:17;;;;;;;26.80;14.77;;;;;;;;;;6090661;23;20258;-76
2023/03/05 11:53:28;;;;;;;30.60;15.40;;;;;;;;;;6108269;23;20151;-76
2023/03/05 11:56:36;;;;;;;34.17;15.33;;;;;;;;;;6108024;23;20155;-76
2023/03/05 11:59:41;;;;;;;26.83;14.77;;;;;;;;;;6073520;23;20159;-76
2023/03/05 12:02:49;;;;;;;26.20;13.97;;;;;;;;;;6064249;23;20174;-76
2023/03/05 12:05:59;;;;;;;32.10;14.63;;;;;;;;;;6090017;23;20151;-75
2023/03/05 12:09:11;;;;;;;28.83;14.37;;;;;;;;;;6080437;23;20494;-76
2023/03/05 12:12:34;;;;;;;29.07;13.73;;;;;;;;;;6080303;23;20179;-76
2023/03/05 12:15:44;;;;;;;25.37;13.33;;;;;;;;;;6089490;23;20187;-76
2023/03/05 12:19:07;;;;;;;25.40;13.23;;;;;;;;;;6097188;23;20198;-76
2023/03/05 12:22:20;;;;;;;32.40;14.70;;;;;;;;;;6073126;23;20159;-76
2023/03/05 12:25:51;;;;;;;27.23;14.23;;;;;;;;;;6107347;23;20155;-75
2023/03/05 12:28:56;;;;;;;25.80;13.90;;;;;;;;;;6080603;23;20183;-76
2023/03/05 12:32:01;;;;;;;29.50;13.00;;;;;;;;;;6073224;23;20159;-75
2023/03/05 12:35:29;;;;;;;25.03;13.03;;;;;;;;;;6106626;23;20187;-76
2023/03/05 12:38:33;;;;;;;25.97;13.83;;;;;;;;;;6081009;23;20194;-75
2023/03/05 12:41:38;;;;;;;22.77;12.83;;;;;;;;;;6106878;23;20155;-76
2023/03/05 12:44:42;;;;;;;21.10;12.53;;;;;;;;;;6106878;23;20466;-75
2023/03/05 12:48:11;;;;;;;26.17;12.70;;;;;;;;;;6084114;23;20195;-76
2023/03/05 12:51:28;;;;;;;24.10;13.53;;;;;;;;;;6106405;23;20159;-76
2023/03/05 12:54:40;;;;;;;21.27;11.87;;;;;;;;;;6079388;23;20195;-77
2023/03/05 12:57:48;;;;;;;23.27;12.17;;;;;;;;;;6101721;23;20198;-76
2023/03/05 13:01:10;;;;;;;22.87;12.13;;;;;;;;;;6106868;23;20490;-76
2023/03/05 13:04:20;;;;;;;17.13;10.77;;;;;;;;;;6072830;23;20155;-77
2023/03/05 13:07:24;;;;;;;23.03;11.90;;;;;;;;;;6103216;23;20652;-77
2023/03/05 13:10:28;;;;;;;23.17;12.53;;;;;;;;;;6116400;23;20639;-76
2023/03/05 13:13:36;;;;;;;19.27;10.90;;;;;;;;;;6125860;23;20170;-76
2023/03/05 13:16:40;;;;;;;19.67;10.20;;;;;;;;;;6135289;23;20151;-77
2023/03/05 13:19:45;;;;;;;15.20;8.90;;;;;;;;;;6135278;23;20600;-77
2023/03/05 13:23:13;;;;;;;17.33;10.10;;;;;;;;;;6135015;23;20154;-76
2023/03/05 13:26:19;;;;;;;15.50;8.87;;;;;;;;;;6136436;23;20154;-76
2023/03/05 13:29:29;;;;;;;16.83;9.90;;;;;;;;;;6135141;23;20159;-77
2023/03/05 13:32:33;;;;;;;22.00;10.57;;;;;;;;;;6135669;23;20154;-77
2023/03/05 13:35:44;;;;;;;19.20;10.20;;;;;;;;;;6135311;23;20182;-76
2023/03/05 13:38:49;;;;;;;20.33;9.67;;;;;;;;;;6129063;23;20517;-77
2023/03/05 13:41:58;;;;;;;16.87;9.23;;;;;;;;;;6119968;23;20154;-76
2023/03/05 13:45:05;;;;;;;15.40;8.50;;;;;;;;;;6119657;23;20155;-76
2023/03/05 13:48:17;;;;;;;14.13;8.40;;;;;;;;;;6112866;23;20193;-77
2023/03/05 13:51:22;;;;;;;20.53;9.23;;;;;;;;;;6136285;23;20158;-76
2023/03/05 13:54:27;;;;;;;17.47;8.77;;;;;;;;;;6137605;23;20182;-76
2023/03/05 13:57:39;;;;;;;13.23;8.40;;;;;;;;;;6133051;23;20190;-77
2023/03/05 14:00:43;;;;;;;12.03;7.47;;;;;;;;;;6136558;23;20158;-76
2023/03/05 14:03:50;;;;;;;17.97;7.97;;;;;;;;;;6136878;23;20158;-76
2023/03/05 14:07:03;;;;;;;17.13;7.83;;;;;;;;;;6118013;23;20190;-76
2023/03/05 14:10:29;;;;;;;11.17;6.77;;;;;;;;;;6129574;23;20182;-76
2023/03/05 14:13:33;;;;;;;12.80;6.83;;;;;;;;;;6119956;23;20155;-76
2023/03/05 14:16:38;;;;;;;15.00;7.10;;;;;;;;;;6151698;22;20208;-75
2023/03/05 14:19:42;;;;;;;12.17;7.37;;;;;;;;;;6294728;22;20157;-75
2023/03/05 14:22:48;;;;;;;17.13;8.60;;;;;;;;;;6277599;22;20576;-76
2023/03/05 14:26:09;;;;;;;16.70;7.70;;;;;;;;;;6284530;22;20164;-75
2023/03/05 14:29:16;;;;;;;14.03;7.50;;;;;;;;;;6222074;23;20149;-77
2023/03/05 14:32:30;;;;;;;15.43;7.87;;;;;;;;;;6222163;23;20156;-75
2023/03/05 14:35:35;;;;;;;12.33;7.40;;;;;;;;;;6284529;22;20192;-75
2023/03/05 14:38:41;;;;;;;14.73;7.00;;;;;;;;;;6212873;23;20660;-75
2023/03/05 14:41:46;;;;;;;14.80;7.27;;;;;;;;;;6294696;22;20152;-75
2023/03/05 14:44:49;;;;;;;13.70;8.03;;;;;;;;;;6221638;23;20152;-77
2023/03/05 14:47:56;;;;;;;11.80;7.13;;;;;;;;;;6270846;22;20191;-76
2023/03/05 14:51:00;;;;;;;15.83;8.00;;;;;;;;;;6294332;22;20589;-75
2023/03/05 14:54:05;;;;;;;16.43;7.60;;;;;;;;;;6221924;23;20157;-77
2023/03/05 14:57:14;;;;;;;14.40;7.23;;;;;;;;;;6292067;22;20493;-75
2023/03/05 15:00:21;;;;;;;15.43;7.93;;;;;;;;;;6277041;22;20156;-75
2023/03/05 15:03:26;;;;;;;16.87;7.80;;;;;;;;;;6294415;22;20152;-77
2023/03/05 15:06:35;;;;;;;14.43;8.00;;;;;;;;;;6295829;22;20152;-75
2023/03/05 15:09:38;;;;;;;12.17;7.53;;;;;;;;;;6267019;22;20172;-77
2023/03/05 15:12:43;;;;;;;18.60;8.70;;;;;;;;;;6294403;22;20157;-75
2023/03/05 15:15:47;;;;;;;20.73;9.57;;;;;;;;;;6294760;22;20176;-77
2023/03/05 15:18:51;;;;;;;14.47;7.10;;;;;;;;;;6266843;22;20192;-77
2023/03/05 15:21:56;;;;;;;14.57;7.97;;;;;;;;;;6221763;23;20152;-75
2023/03/05 15:25:00;;;;;;;16.63;7.57;;;;;;;;;;6211626;23;20164;-77
2023/03/05 15:28:04;;;;;;;13.73;7.90;;;;;;;;;;6287558;22;20192;-77
2023/03/05 15:31:08;;;;;;;12.20;7.10;;;;;;;;;;6222187;23;20466;-76
2023/03/05 15:34:12;;;;;;;15.80;7.93;;;;;;;;;;6258783;22;20151;-76
2023/03/05 15:37:16;;;;;;;18.77;8.80;;;;;;;;;;6291149;22;20187;-77
2023/03/05 15:40:21;;;;;;;15.73;7.63;;;;;;;;;;6276308;22;20157;-77
2023/03/05 15:43:24;;;;;;;13.33;7.97;;;;;;;;;;6211691;23;20168;-77
2023/03/05 15:46:28;;;;;;;13.43;7.37;;;;;;;;;;6248547;22;20187;-77
2023/03/05 15:49:33;;;;;;;13.20;7.50;;;;;;;;;;6285000;22;20176;-77
2023/03/05 15:52:37;;;;;;;13.30;7.87;;;;;;;;;;6211617;23;20176;-74
2023/03/05 15:55:42;;;;;;;13.73;8.40;;;;;;;;;;6276240;22;20176;-74
2023/03/05 15:58:49;;;;;;;20.67;11.50;;;;;;;;;;6267202;22;20196;-77
2023/03/05 16:01:53;;;;;;;14.10;7.70;;;;;;;;;;6276405;22;20160;-76
2023/03/05 16:04:57;;;;;;;14.20;7.70;;;;;;;;;;6294061;22;20148;-76
2023/03/05 16:08:02;;;;;;;26.77;9.00;;;;;;;;;;6215331;23;20192;-76
2023/03/05 16:11:06;;;;;;;15.90;8.20;;;;;;;;;;6222576;23;20160;-77
2023/03/05 16:14:11;;;;;;;16.33;9.97;;;;;;;;;;6277040;22;20157;-77
2023/03/05 16:17:16;;;;;;;14.77;8.63;;;;;;;;;;6272623;22;20192;-77
2023/03/05 16:20:21;;;;;;;16.07;8.87;;;;;;;;;;6277132;22;20160;-77
2023/03/05 16:23:25;;;;;;;15.63;9.33;;;;;;;;;;6298377;22;20156;-77
2023/03/05 16:26:29;;;;;;;16.43;9.13;;;;;;;;;;6222181;23;20156;-76
2023/03/05 16:29:34;;;;;;;22.03;10.00;;;;;;;;;;6295138;22;20156;-78
2023/03/05 16:32:38;;;;;;;18.43;9.97;;;;;;;;;;6295913;22;20156;-77
2023/03/05 16:35:42;;;;;;;13.73;7.53;;;;;;;;;;6293833;22;20482;-77
2023/03/05 16:38:48;;;;;;;13.90;8.13;;;;;;;;;;6286168;22;20648;-78
2023/03/05 16:41:52;;;;;;;13.77;8.00;;;;;;;;;;6222018;23;20152;-77
2023/03/05 16:44:59;;;;;;;14.10;7.73;;;;;;;;;;6248845;22;20183;-77
2023/03/05 16:48:03;;;;;;;15.30;8.33;;;;;;;;;;6269929;22;20505;-77
2023/03/05 16:51:09;;;;;;;17.30;8.93;;;;;;;;;;6221760;23;20156;-77
2023/03/05 16:54:13;;;;;;;24.93;10.93;;;;;;;;;;6294984;22;20156;-77
2023/03/05 16:57:17;;;;;;;21.43;10.23;;;;;;;;;;6291136;22;20192;-77
2023/03/05 17:00:23;;;;;;;18.40;11.77;;;;;;;;;;6276963;22;20156;-77
2023/03/05 17:03:28;;;;;;;20.07;10.07;;;;;;;;;;6276339;22;20156;-77
2023/03/05 17:06:33;;;;;;;14.63;8.93;;;;;;;;;;6211805;23;20168;-76
2023/03/05 17:09:38;;;;;;;15.97;8.93;;;;;;;;;;6294462;22;20454;-76
2023/03/05 17:12:43;;;;;;;27.03;15.97;;;;;;;;;;6278408;22;20152;-77
2023/03/05 17:15:47;;;;;;;18.30;11.30;;;;;;;;;;6299996;22;20199;-78
2023/03/05 17:18:51;;;;;;;18.50;10.37;;;;;;;;;;6273234;22;20191;-78
2023/03/05 17:21:55;;;;;;;19.03;10.90;;;;;;;;;;6256430;22;20172;-77
2023/03/05 17:24:59;;;;;;;18.13;9.80;;;;;;;;;;6254843;22;20474;-77
2023/03/05 17:28:04;;;;;;;21.60;13.13;;;;;;;;;;6251931;22;20187;-77
2023/03/05 17:31:09;;;;;;;20.20;10.07;;;;;;;;;;6298714;22;20157;-77
2023/03/05 17:34:13;;;;;;;15.30;9.10;;;;;;;;;;6280307;22;20149;-77
2023/03/05 17:37:18;;;;;;;31.67;17.13;;;;;;;;;;6274607;22;20200;-76
2023/03/05 17:40:23;;;;;;;24.03;12.43;;;;;;;;;;6297772;22;20156;-80
2023/03/05 17:43:27;;;;;;;41.27;22.97;;;;;;;;;;6297301;22;20153;-80
2023/03/05 17:46:31;;;;;;;33.33;18.23;;;;;;;;;;6280085;22;20145;-79
2023/03/05 17:49:35;;;;;;;20.57;11.70;;;;;;;;;;6298354;22;20190;-79
2023/03/05 17:52:40;;;;;;;16.50;10.50;;;;;;;;;;6280188;22;20156;-80
2023/03/05 17:55:44;;;;;;;21.83;12.30;;;;;;;;;;6262182;22;20184;-80
2023/03/05 17:58:48;;;;;;;27.67;15.23;;;;;;;;;;6287250;22;20191;-80
2023/03/05 18:01:52;;;;;;;29.10;15.63;;;;;;;;;;6297824;22;20148;-80
2023/03/05 18:04:57;;;;;;;24.93;14.73;;;;;;;;;;6261545;22;20153;-80
2023/03/05 18:08:02;;;;;;;24.27;13.03;;;;;;;;;;6255769;22;20184;-79